Time;durP1;ratioP1;P1;durP2;ratioP2;P2;SDS_P1;SDS_P2;PMS_P1;PMS_P2;Temp;Humidity;BMP_temperature;BMP_pressure;BME280_temperature;BME280_humidity;BME280_pressure;Samples;Min_cycle;Max_cycle;Signal;HPM_P1;HPM_P2
2022/11/02 00:01:24;;;;;;;10.68;1.73;;;12.90;99.90;;;;;;5028369;28;20488;-73
2022/11/02 00:03:50;;;;;;;8.27;2.17;;;12.80;99.90;;;;;;4996429;28;20042;-73
2022/11/02 00:06:15;;;;;;;12.18;1.83;;;12.80;99.90;;;;;;5016597;28;20467;-73
2022/11/02 00:08:41;;;;;;;11.07;2.22;;;12.80;99.90;;;;;;5023701;28;20052;-72
2022/11/02 00:11:07;;;;;;;12.27;1.95;;;12.80;99.90;;;;;;5014817;28;20136;-73
2022/11/02 00:13:33;;;;;;;11.50;1.80;;;12.80;99.90;;;;;;5018864;28;20056;-72
2022/11/02 00:16:06;;;;;;;10.32;1.60;;;12.80;99.90;;;;;;5006439;28;20048;-72
2022/11/02 00:18:33;;;;;;;15.40;1.92;;;12.80;99.90;;;;;;5027860;28;20084;-73
2022/11/02 00:21:00;;;;;;;8.02;1.50;;;12.90;99.90;;;;;;5032938;28;20496;-73
2022/11/02 00:23:26;;;;;;;11.77;2.15;;;12.70;99.90;;;;;;5013175;28;20067;-74
2022/11/02 00:25:53;;;;;;;11.40;1.75;;;12.60;99.90;;;;;;5020852;28;20544;-73
2022/11/02 00:28:19;;;;;;;6.30;1.23;;;12.50;99.90;;;;;;5021968;28;20057;-73
2022/11/02 00:30:44;;;;;;;12.02;1.95;;;12.50;99.90;;;;;;5027477;28;20578;-74
2022/11/02 00:33:10;;;;;;;11.82;1.98;;;12.50;99.90;;;;;;5029583;28;20053;-74
2022/11/02 00:35:37;;;;;;;11.90;2.05;;;12.60;99.90;;;;;;5024473;28;20055;-73
2022/11/02 00:38:04;;;;;;;9.45;1.73;;;12.30;99.90;;;;;;5015757;28;20046;-75
2022/11/02 00:40:30;;;;;;;8.38;1.35;;;12.30;99.90;;;;;;5012712;28;20060;-74
2022/11/02 00:42:56;;;;;;;8.18;1.45;;;12.20;99.90;;;;;;5020003;28;20486;-73
2022/11/02 00:45:22;;;;;;;7.28;1.70;;;12.20;99.90;;;;;;5014617;28;20046;-73
2022/11/02 00:47:48;;;;;;;5.60;1.75;;;12.10;99.90;;;;;;5015180;28;20069;-74
2022/11/02 00:50:14;;;;;;;8.05;1.33;;;12.10;99.90;;;;;;5016065;28;20049;-74
2022/11/02 00:52:41;;;;;;;5.45;1.23;;;12.10;99.90;;;;;;5011053;28;20094;-74
2022/11/02 00:55:08;;;;;;;6.20;1.55;;;12.00;99.90;;;;;;5007851;28;20033;-73
2022/11/02 00:57:34;;;;;;;8.68;1.42;;;12.00;99.90;;;;;;5012747;28;20086;-73
2022/11/02 01:00:00;;;;;;;5.97;1.27;;;11.90;99.90;;;;;;5025840;28;20068;-73
2022/11/02 01:02:26;;;;;;;5.60;1.13;;;11.90;99.90;;;;;;5020465;28;20144;-73
2022/11/02 01:04:51;;;;;;;7.95;1.00;;;11.90;99.90;;;;;;5016579;28;20061;-74
2022/11/02 01:07:17;;;;;;;10.32;1.30;;;11.90;99.90;;;;;;5014536;28;20069;-74
2022/11/02 01:09:43;;;;;;;6.20;1.20;;;11.90;99.90;;;;;;5019875;28;20072;-74
2022/11/02 01:12:08;;;;;;;4.75;1.33;;;11.90;99.90;;;;;;5021673;28;20047;-74
2022/11/02 01:14:34;;;;;;;5.47;1.20;;;11.80;99.90;;;;;;5022646;28;20053;-73
2022/11/02 01:17:00;;;;;;;7.07;1.25;;;11.80;99.90;;;;;;5012879;28;20038;-73
2022/11/02 01:19:26;;;;;;;7.68;1.58;;;11.80;99.90;;;;;;5015200;28;20418;-74
2022/11/02 01:21:52;;;;;;;7.55;1.13;;;11.70;99.90;;;;;;5018415;28;20038;-74
2022/11/02 01:24:18;;;;;;;5.32;0.80;;;11.70;99.90;;;;;;5019050;28;20046;-74
2022/11/02 01:26:44;;;;;;;6.50;1.00;;;11.60;99.90;;;;;;5004881;28;20041;-74
2022/11/02 01:29:11;;;;;;;6.25;0.90;;;11.60;99.90;;;;;;5015082;28;20114;-74
2022/11/02 01:31:36;;;;;;;4.82;0.90;;;11.50;99.90;;;;;;5012903;28;20104;-74
2022/11/02 01:34:03;;;;;;;6.28;1.20;;;11.50;99.90;;;;;;5021166;28;20774;-73
2022/11/02 01:36:28;;;;;;;4.05;0.77;;;11.50;99.90;;;;;;5019420;28;20080;-73
2022/11/02 01:38:54;;;;;;;4.35;0.90;;;11.40;99.90;;;;;;5027566;28;20076;-73
2022/11/02 01:41:21;;;;;;;6.28;1.33;;;11.50;99.90;;;;;;5039872;28;20075;-73
2022/11/02 01:43:50;;;;;;;7.13;1.23;;;11.40;99.90;;;;;;5031598;28;20410;-74
2022/11/02 01:46:21;;;;;;;5.80;1.17;;;11.40;99.90;;;;;;5021242;28;20076;-73
2022/11/02 01:49:22;;;;;;;3.95;0.88;;;11.40;99.90;;;;;;5026364;28;20393;-73
2022/11/02 01:51:50;;;;;;;3.55;0.90;;;11.40;99.90;;;;;;4953910;28;20185;-73
2022/11/02 01:54:21;;;;;;;8.43;2.35;;;11.40;99.90;;;;;;5012168;28;20075;-73
2022/11/02 01:56:51;;;;;;;2.45;0.95;;;11.50;99.90;;;;;;5026547;28;20044;-74
2022/11/02 01:59:22;;;;;;;3.17;0.70;;;11.50;99.90;;;;;;5034761;28;20594;-74
2022/11/02 02:01:48;;;;;;;4.57;0.80;;;11.40;99.90;;;;;;5022171;28;20049;-74
2022/11/02 02:04:15;;;;;;;10.02;1.30;;;11.40;99.90;;;;;;5023526;28;20041;-74
2022/11/02 02:06:41;;;;;;;5.55;1.17;;;11.40;99.90;;;;;;5004211;28;20072;-73
2022/11/02 02:09:09;;;;;;;4.72;0.80;;;11.40;99.90;;;;;;5025990;28;20040;-74
2022/11/02 02:11:37;;;;;;;2.95;0.60;;;11.30;99.90;;;;;;5023280;28;20057;-73
2022/11/02 02:14:12;;;;;;;2.63;0.65;;;11.20;99.90;;;;;;5030779;28;20449;-74
2022/11/02 02:17:03;;;;;;;1.42;0.47;;;11.20;99.90;;;;;;5020893;28;20073;-73
2022/11/02 02:19:54;;;;;;;2.58;0.75;;;11.20;99.90;;;;;;5045482;28;20651;-73
2022/11/02 02:22:39;;;;;;;;;;;11.20;99.90;;;;;;5029873;28;20086;-73
2022/11/02 02:25:13;;;;;;;7.57;1.10;;;11.20;99.90;;;;;;5026019;28;19921;-72
2022/11/02 02:28:09;;;;;;;5.57;1.17;;;11.20;99.90;;;;;;5026308;28;20123;-73
2022/11/02 02:31:04;;;;;;;5.32;1.50;;;11.20;99.90;;;;;;5027752;28;20042;-72
2022/11/02 02:33:59;;;;;;;5.97;1.23;;;11.20;99.90;;;;;;5011597;28;20442;-72
2022/11/02 02:36:31;;;;;;;8.07;1.48;;;11.20;99.90;;;;;;5032975;28;20523;-73
2022/11/02 02:39:22;;;;;;;7.05;1.60;;;11.20;99.90;;;;;;5028461;28;20049;-72
2022/11/02 02:41:58;;;;;;;8.93;1.67;;;11.10;99.90;;;;;;5029956;28;20421;-73
2022/11/02 02:44:28;;;;;;;4.43;1.65;;;11.20;99.90;;;;;;5024203;28;20502;-73
2022/11/02 02:47:01;;;;;;;8.57;1.60;;;11.10;99.90;;;;;;5029398;28;20041;-73
2022/11/02 02:49:41;;;;;;;10.02;1.83;;;11.10;99.90;;;;;;5032669;28;20412;-73
2022/11/02 02:52:08;;;;;;;11.15;1.80;;;11.10;99.90;;;;;;5031172;28;20502;-73
2022/11/02 02:54:38;;;;;;;8.50;1.67;;;11.10;99.90;;;;;;5035020;28;20492;-72
2022/11/02 02:57:11;;;;;;;12.52;1.90;;;11.10;99.90;;;;;;5025644;28;20053;-73
2022/11/02 02:59:42;;;;;;;8.82;1.70;;;11.10;99.90;;;;;;5030669;28;20098;-72
2022/11/02 03:02:20;;;;;;;10.65;1.65;;;11.10;99.90;;;;;;5024244;28;20124;-73
2022/11/02 03:04:46;;;;;;;8.23;1.67;;;11.10;99.90;;;;;;5028928;28;20033;-73
2022/11/02 03:07:17;;;;;;;8.82;1.40;;;11.10;99.90;;;;;;5030062;28;20037;-73
2022/11/02 03:09:49;;;;;;;;;;;11.10;99.90;;;;;;5014972;28;20077;-74
2022/11/02 03:12:49;;;;;;;6.85;1.00;;;11.10;99.90;;;;;;5029773;28;19967;-73
2022/11/02 03:15:25;;;;;;;7.70;1.27;;;11.10;99.90;;;;;;5046125;28;20052;-72
2022/11/02 03:18:05;;;;;;;7.20;1.08;;;11.00;99.90;;;;;;5027609;28;20533;-73
2022/11/02 03:20:58;;;;;;;5.57;1.10;;;11.00;99.90;;;;;;5029509;28;20072;-73
2022/11/02 03:23:47;;;;;;;5.28;0.88;;;10.90;99.90;;;;;;5020528;28;20132;-73
2022/11/02 03:26:30;;;;;;;4.93;0.98;;;10.90;99.90;;;;;;5017187;28;20064;-74
2022/11/02 03:29:05;;;;;;;6.13;0.85;;;10.80;99.90;;;;;;5018784;28;20052;-73
2022/11/02 03:31:40;;;;;;;8.07;1.05;;;10.80;99.90;;;;;;5022290;28;20517;-73
2022/11/02 03:34:15;;;;;;;6.72;1.00;;;10.80;99.90;;;;;;5021011;28;20423;-72
2022/11/02 03:37:01;;;;;;;6.03;0.98;;;10.80;99.90;;;;;;5007303;28;20777;-72
2022/11/02 03:39:38;;;;;;;5.90;0.75;;;10.80;99.90;;;;;;5034357;28;20041;-73
2022/11/02 03:42:05;;;;;;;8.65;1.30;;;10.70;99.90;;;;;;5021586;28;20522;-73
2022/11/02 03:44:37;;;;;;;8.02;1.20;;;10.70;99.90;;;;;;5028985;28;20079;-73
2022/11/02 03:47:04;;;;;;;9.95;1.15;;;10.70;99.90;;;;;;5030590;28;20428;-73
2022/11/02 03:49:31;;;;;;;7.88;1.30;;;11.00;99.90;;;;;;5015093;28;20079;-73
2022/11/02 03:52:01;;;;;;;7.47;1.20;;;10.60;99.90;;;;;;5005391;28;20107;-73
2022/11/02 03:54:46;;;;;;;8.27;1.23;;;10.60;99.90;;;;;;5017598;28;20216;-73
2022/11/02 03:57:22;;;;;;;5.15;1.02;;;10.60;99.90;;;;;;5004489;28;20055;-73
2022/11/02 03:59:48;;;;;;;8.00;1.30;;;10.60;99.90;;;;;;5025489;28;20049;-73
2022/11/02 04:02:15;;;;;;;8.98;1.30;;;10.60;99.90;;;;;;5020868;28;20052;-73
2022/11/02 04:04:51;;;;;;;10.38;1.60;;;10.60;99.90;;;;;;5004589;28;20655;-73
2022/11/02 04:07:27;;;;;;;12.18;1.67;;;10.60;99.90;;;;;;5019029;28;20437;-73
2022/11/02 04:09:53;;;;;;;11.63;1.50;;;10.60;99.90;;;;;;5034994;28;20057;-73
2022/11/02 04:15:03;;;;;;;9.38;1.40;;;10.60;99.90;;;;;;5033540;28;20172;-73
2022/11/02 04:20:13;;;;;;;15.82;1.85;;;10.70;99.90;;;;;;5017155;28;20049;-73
2022/11/02 04:25:23;;;;;;;11.73;1.40;;;11.00;99.90;;;;;;5007995;28;20049;-73
2022/11/02 04:27:51;;;;;;;13.02;1.98;;;10.60;99.90;;;;;;5014742;28;20038;-73
2022/11/02 04:30:19;;;;;;;12.80;1.60;;;10.60;99.90;;;;;;5009693;28;20041;-73
2022/11/02 04:35:53;;;;;;;9.48;1.80;;;10.60;99.90;;;;;;4982128;28;20112;-73
2022/11/02 04:43:48;;;;;;;9.48;1.58;;;10.60;99.90;;;;;;5006894;28;20112;-73
2022/11/02 04:46:13;;;;;;;10.00;1.50;;;10.90;99.90;;;;;;5011528;28;20048;-73
2022/11/02 04:48:39;;;;;;;18.35;1.70;;;10.60;99.90;;;;;;5018868;28;20473;-71
2022/11/02 04:51:05;;;;;;;11.15;1.88;;;10.60;99.90;;;;;;5007538;28;20038;-72
2022/11/02 04:53:31;;;;;;;11.60;1.98;;;10.60;99.90;;;;;;5011711;28;20061;-73
2022/11/02 04:55:56;;;;;;;7.45;1.77;;;10.60;99.90;;;;;;5020625;28;20045;-72
2022/11/02 04:58:22;;;;;;;9.50;1.50;;;10.60;99.90;;;;;;5002265;28;20043;-73
2022/11/02 05:00:48;;;;;;;9.05;1.80;;;10.60;99.90;;;;;;5025634;28;20041;-72
2022/11/02 05:03:13;;;;;;;8.55;1.50;;;10.60;99.90;;;;;;5010902;28;20506;-73
2022/11/02 05:05:39;;;;;;;11.75;1.65;;;10.60;99.90;;;;;;5013453;28;20087;-73
2022/11/02 05:08:05;;;;;;;11.45;1.98;;;10.60;99.90;;;;;;5001822;28;20045;-72
2022/11/02 05:10:30;;;;;;;12.10;2.03;;;10.60;99.90;;;;;;5012045;28;20136;-72
2022/11/02 05:12:57;;;;;;;8.38;1.67;;;10.60;99.90;;;;;;5022611;28;20037;-72
2022/11/02 05:15:23;;;;;;;11.07;1.80;;;10.60;99.90;;;;;;5011636;28;20104;-73
2022/11/02 05:17:49;;;;;;;12.68;2.03;;;10.60;99.90;;;;;;5029178;28;20046;-73
2022/11/02 05:20:15;;;;;;;10.73;1.80;;;10.60;99.90;;;;;;5009926;28;21007;-72
2022/11/02 05:22:41;;;;;;;10.60;1.60;;;10.60;99.90;;;;;;5013579;28;20053;-72
2022/11/02 05:25:08;;;;;;;9.15;1.70;;;11.00;99.90;;;;;;5015505;28;20414;-72
2022/11/02 05:27:34;;;;;;;7.40;1.90;;;10.60;99.90;;;;;;5018285;28;20104;-73
2022/11/02 05:29:59;;;;;;;11.65;2.10;;;10.60;99.90;;;;;;5011170;28;20041;-71
2022/11/02 05:32:26;;;;;;;7.88;1.65;;;10.60;99.90;;;;;;5010304;28;20049;-72
2022/11/02 05:34:52;;;;;;;8.57;1.65;;;10.50;99.90;;;;;;4994515;28;20072;-72
2022/11/02 05:37:17;;;;;;;12.95;1.80;;;11.10;99.90;;;;;;5008088;28;20037;-71
2022/11/02 05:39:43;;;;;;;6.75;1.52;;;10.70;99.90;;;;;;5002003;28;20519;-72
2022/11/02 05:42:09;;;;;;;16.23;2.80;;;10.90;99.90;;;;;;5011616;28;20044;-74
2022/11/02 05:44:35;;;;;;;10.18;1.90;;;10.60;99.90;;;;;;5012753;28;20068;-72
2022/11/02 05:47:02;;;;;;;12.77;2.75;;;10.60;99.90;;;;;;4998089;28;20045;-72
2022/11/02 05:49:28;;;;;;;9.95;1.73;;;10.60;99.90;;;;;;5014978;28;20034;-72
2022/11/02 05:51:54;;;;;;;19.00;2.78;;;10.60;99.90;;;;;;5013394;28;20141;-72
2022/11/02 05:54:20;;;;;;;11.60;1.80;;;10.60;99.90;;;;;;5013907;28;20037;-72
2022/11/02 05:56:46;;;;;;;11.18;1.77;;;10.60;99.90;;;;;;4999178;28;20608;-72
2022/11/02 05:59:11;;;;;;;14.30;3.05;;;10.60;99.90;;;;;;5012735;28;20060;-73
2022/11/02 06:01:37;;;;;;;9.63;2.00;;;10.60;99.90;;;;;;5009090;28;20411;-73
2022/11/02 06:04:04;;;;;;;12.52;2.13;;;10.60;99.90;;;;;;5013500;28;20050;-73
2022/11/02 06:06:30;;;;;;;11.68;2.33;;;10.60;99.90;;;;;;5000998;28;20058;-73
2022/11/02 06:08:55;;;;;;;11.00;2.63;;;10.60;99.90;;;;;;5010583;28;20108;-72
2022/11/02 06:11:21;;;;;;;8.63;2.35;;;10.60;99.90;;;;;;5007639;28;20137;-73
2022/11/02 06:13:49;;;;;;;18.05;3.20;;;10.60;99.90;;;;;;5017306;28;20103;-73
2022/11/02 06:16:15;;;;;;;11.82;2.15;;;10.60;99.90;;;;;;5011775;28;20050;-73
2022/11/02 06:18:41;;;;;;;16.75;2.55;;;10.60;99.90;;;;;;5019587;28;20046;-73
2022/11/02 06:21:08;;;;;;;10.38;1.83;;;10.60;99.90;;;;;;5007241;28;20108;-72
2022/11/02 06:23:34;;;;;;;19.02;2.67;;;10.60;99.90;;;;;;5018229;28;20131;-73
2022/11/02 06:26:02;;;;;;;16.40;2.33;;;10.60;99.90;;;;;;5018273;28;20057;-73
2022/11/02 06:28:29;;;;;;;13.13;2.22;;;10.70;99.90;;;;;;5014598;28;20033;-73
2022/11/02 06:30:55;;;;;;;10.05;1.80;;;10.70;99.90;;;;;;5039568;28;20476;-73
2022/11/02 06:33:21;;;;;;;12.88;1.83;;;10.70;99.90;;;;;;5011956;28;20387;-73
2022/11/02 06:35:50;;;;;;;12.80;2.38;;;10.70;99.90;;;;;;5035277;28;20072;-72
2022/11/02 06:38:17;;;;;;;9.80;1.65;;;10.70;99.90;;;;;;5019606;28;20048;-74
2022/11/02 06:40:43;;;;;;;13.20;2.33;;;10.70;99.90;;;;;;5015859;28;20053;-72
2022/11/02 06:43:10;;;;;;;13.90;2.20;;;10.70;99.90;;;;;;5003005;28;20058;-72
2022/11/02 06:45:36;;;;;;;11.93;1.95;;;10.80;99.90;;;;;;5007322;28;20068;-73
2022/11/02 06:48:01;;;;;;;10.80;1.75;;;10.70;99.90;;;;;;5008864;28;20042;-73
2022/11/02 06:50:28;;;;;;;14.55;2.38;;;10.70;99.90;;;;;;5020508;28;20122;-73
2022/11/02 06:52:54;;;;;;;9.52;1.73;;;10.70;99.90;;;;;;5018615;28;21515;-72
2022/11/02 06:55:19;;;;;;;15.15;2.22;;;10.70;99.90;;;;;;5012342;28;20034;-73
2022/11/02 06:57:45;;;;;;;7.57;1.52;;;11.10;99.90;;;;;;5015097;28;20076;-73
2022/11/02 07:00:16;;;;;;;10.95;2.00;;;10.70;99.90;;;;;;4997625;28;20076;-73
2022/11/02 07:02:44;;;;;;;12.15;2.13;;;10.70;99.90;;;;;;5011649;28;20509;-72
2022/11/02 07:05:10;;;;;;;14.07;2.63;;;10.80;99.90;;;;;;5018399;28;20061;-72
2022/11/02 07:07:36;;;;;;;14.25;2.47;;;10.80;99.90;;;;;;5011915;28;20057;-73
2022/11/02 07:10:01;;;;;;;13.30;1.80;;;10.70;99.90;;;;;;5015018;28;20126;-73
2022/11/02 07:12:27;;;;;;;11.45;1.90;;;10.80;99.90;;;;;;5015568;28;20121;-72
2022/11/02 07:14:53;;;;;;;16.33;1.60;;;10.80;99.90;;;;;;4994221;28;20107;-73
2022/11/02 07:17:19;;;;;;;13.60;1.88;;;10.90;99.90;;;;;;5006384;28;20042;-72
2022/11/02 07:19:44;;;;;;;13.35;1.80;;;10.90;99.90;;;;;;5010292;28;20503;-72
2022/11/02 07:22:10;;;;;;;18.90;2.17;;;10.80;99.90;;;;;;5013940;28;20052;-71
2022/11/02 07:24:36;;;;;;;10.38;1.65;;;10.80;99.90;;;;;;5015607;28;20403;-73
2022/11/02 07:27:02;;;;;;;16.13;1.70;;;10.90;99.90;;;;;;5010719;28;20076;-72
2022/11/02 07:29:30;;;;;;;12.27;1.48;;;10.80;99.90;;;;;;4998363;28;20052;-72
2022/11/02 07:31:56;;;;;;;12.88;1.23;;;10.80;99.90;;;;;;5015306;28;20046;-72
2022/11/02 07:34:22;;;;;;;14.02;2.03;;;10.80;99.90;;;;;;5017872;28;20512;-72
2022/11/02 07:36:48;;;;;;;9.65;1.50;;;10.80;99.90;;;;;;5013307;28;20099;-71
2022/11/02 07:39:14;;;;;;;8.15;1.10;;;10.70;99.90;;;;;;4997744;28;20099;-72
2022/11/02 07:41:39;;;;;;;9.82;1.35;;;10.70;99.90;;;;;;5016214;28;20084;-72
2022/11/02 07:44:05;;;;;;;9.60;1.20;;;10.70;99.90;;;;;;5011723;28;20045;-73
2022/11/02 07:46:31;;;;;;;6.53;1.17;;;10.70;99.90;;;;;;4999777;28;20053;-72
2022/11/02 07:48:57;;;;;;;7.70;1.42;;;10.60;99.90;;;;;;5019834;28;20045;-72
2022/11/02 07:51:22;;;;;;;15.43;2.08;;;11.00;99.90;;;;;;5012156;28;20456;-73
2022/11/02 07:53:48;;;;;;;8.75;1.80;;;10.70;99.90;;;;;;5008912;28;20077;-72
2022/11/02 07:56:14;;;;;;;6.45;1.38;;;10.60;99.90;;;;;;5010859;28;20379;-72
2022/11/02 07:58:39;;;;;;;9.77;1.20;;;10.60;99.90;;;;;;5007023;28;20419;-73
2022/11/02 08:01:05;;;;;;;11.57;1.33;;;10.50;99.90;;;;;;5007844;28;20041;-73
2022/11/02 08:03:31;;;;;;;7.85;1.52;;;10.60;99.90;;;;;;5018251;28;20049;-71
2022/11/02 08:06:00;;;;;;;10.38;1.17;;;10.60;99.90;;;;;;5013921;28;20191;-72
2022/11/02 08:08:25;;;;;;;6.13;1.02;;;10.60;99.90;;;;;;5019104;28;20041;-72
2022/11/02 08:10:52;;;;;;;7.47;1.42;;;10.60;99.90;;;;;;5014871;28;20041;-72
2022/11/02 08:13:22;;;;;;;9.43;1.50;;;10.70;99.90;;;;;;5017571;28;20115;-72
2022/11/02 08:15:52;;;;;;;7.53;1.20;;;10.70;99.90;;;;;;4997068;28;20042;-72
2022/11/02 08:18:19;;;;;;;9.57;1.20;;;10.70;99.90;;;;;;5045496;28;20141;-71
2022/11/02 08:20:46;;;;;;;9.00;1.75;;;10.80;99.90;;;;;;5020101;28;20160;-72
2022/11/02 08:23:14;;;;;;;9.85;1.75;;;10.80;99.90;;;;;;5015799;28;20057;-71
2022/11/02 08:25:40;;;;;;;9.50;1.40;;;10.80;99.90;;;;;;5002996;28;20073;-72
2022/11/02 08:28:10;;;;;;;7.55;1.50;;;10.90;99.90;;;;;;5018359;28;20473;-71
2022/11/02 08:30:36;;;;;;;10.80;1.65;;;10.90;99.90;;;;;;5021320;28;20051;-72
2022/11/02 08:33:04;;;;;;;9.18;1.70;;;10.90;99.90;;;;;;5017086;28;20485;-72
2022/11/02 08:35:31;;;;;;;13.25;1.60;;;11.00;99.90;;;;;;5017798;28;20506;-72
2022/11/02 08:37:58;;;;;;;12.23;1.65;;;10.90;99.90;;;;;;5010817;28;20103;-71
2022/11/02 08:40:25;;;;;;;15.20;2.20;;;11.00;99.90;;;;;;5010530;28;20132;-72
2022/11/02 08:43:02;;;;;;;9.30;1.55;;;11.10;99.90;;;;;;5004872;28;20049;-71
2022/11/02 08:45:30;;;;;;;7.15;1.25;;;11.10;99.90;;;;;;5015118;28;20305;-71
2022/11/02 08:47:56;;;;;;;7.95;1.27;;;11.20;99.90;;;;;;5016102;28;20030;-72
2022/11/02 08:50:23;;;;;;;8.55;1.40;;;11.20;99.90;;;;;;5018939;28;20041;-72
2022/11/02 08:52:49;;;;;;;10.15;1.17;;;11.30;99.90;;;;;;5019339;28;20047;-72
2022/11/02 08:55:14;;;;;;;11.15;1.95;;;11.30;99.90;;;;;;5011530;28;20041;-71
2022/11/02 08:57:48;;;;;;;17.65;1.95;;;11.30;99.90;;;;;;5017689;28;20456;-71
2022/11/02 09:00:14;;;;;;;14.05;2.85;;;11.40;99.90;;;;;;4996402;28;20131;-71
2022/11/02 09:02:41;;;;;;;11.43;1.50;;;11.40;99.90;;;;;;4994344;28;20053;-71
2022/11/02 09:05:07;;;;;;;12.65;2.30;;;11.50;99.90;;;;;;4995925;28;20045;-72
2022/11/02 09:07:36;;;;;;;13.88;1.80;;;11.50;99.90;;;;;;5008295;28;20049;-71
2022/11/02 09:10:03;;;;;;;10.75;1.50;;;11.50;99.90;;;;;;5031988;28;20057;-71
2022/11/02 09:12:28;;;;;;;13.93;1.80;;;11.60;99.90;;;;;;4997809;28;20402;-71
2022/11/02 09:14:54;;;;;;;11.07;2.15;;;11.60;99.90;;;;;;5007810;28;20049;-72
2022/11/02 09:17:20;;;;;;;16.05;2.00;;;11.70;99.90;;;;;;5008395;28;20049;-72
2022/11/02 09:19:45;;;;;;;10.95;2.13;;;11.90;99.90;;;;;;5008467;28;20045;-72
2022/11/02 09:22:11;;;;;;;17.80;1.92;;;11.80;99.90;;;;;;5011011;28;20854;-71
2022/11/02 09:24:37;;;;;;;13.57;2.05;;;11.70;99.90;;;;;;5011069;28;20041;-71
2022/11/02 09:27:05;;;;;;;15.55;1.75;;;11.90;99.90;;;;;;5009125;28;20045;-71
2022/11/02 09:29:31;;;;;;;13.35;2.00;;;12.00;99.90;;;;;;5010072;28;20088;-71
2022/11/02 09:31:57;;;;;;;13.68;1.58;;;12.00;99.90;;;;;;5008088;28;20442;-71
2022/11/02 09:34:22;;;;;;;11.63;2.00;;;12.10;99.90;;;;;;5012267;28;20057;-71
2022/11/02 09:36:48;;;;;;;13.48;1.98;;;12.10;99.90;;;;;;5014195;28;20050;-71
2022/11/02 09:39:14;;;;;;;19.63;3.38;;;12.10;99.90;;;;;;5008819;28;20513;-71
2022/11/02 09:41:45;;;;;;;13.05;2.55;;;12.10;99.90;;;;;;5008972;28;20042;-72
2022/11/02 09:44:10;;;;;;;;;;;12.20;99.90;;;;;;5006271;28;20060;-72
2022/11/02 09:46:38;;;;;;;11.93;1.67;;;12.20;99.90;;;;;;5003839;28;19925;-73
2022/11/02 09:49:16;;;;;;;14.82;2.22;;;12.40;99.90;;;;;;5002185;28;20064;-72
2022/11/02 09:51:51;;;;;;;10.90;1.70;;;12.20;99.90;;;;;;4988510;28;20056;-71
2022/11/02 09:54:33;;;;;;;12.82;1.98;;;12.20;99.90;;;;;;5011756;28;20687;-72
2022/11/02 09:57:08;;;;;;;12.43;2.45;;;12.30;99.90;;;;;;5000564;28;20103;-72
2022/11/02 09:59:34;;;;;;;15.82;1.83;;;12.30;99.90;;;;;;5005940;28;20046;-72
2022/11/02 10:02:09;;;;;;;13.15;2.13;;;12.30;99.90;;;;;;5016701;28;20044;-72
2022/11/02 10:04:52;;;;;;;11.80;2.60;;;12.30;99.90;;;;;;5019022;28;20147;-72
2022/11/02 10:07:40;;;;;;;10.18;1.67;;;12.30;99.90;;;;;;5015328;28;20053;-73
2022/11/02 10:10:13;;;;;;;13.60;2.05;;;12.30;99.90;;;;;;5020947;28;20831;-72
2022/11/02 10:13:01;;;;;;;9.75;2.10;;;12.20;99.90;;;;;;5023664;28;20049;-72
2022/11/02 10:15:43;;;;;;;10.15;1.67;;;12.20;99.90;;;;;;5021129;28;20112;-71
2022/11/02 10:18:25;;;;;;;8.82;1.48;;;12.10;99.90;;;;;;5011076;28;20111;-72
2022/11/02 10:20:53;;;;;;;;;;;12.00;99.90;;;;;;5019931;28;20056;-72
2022/11/02 10:24:04;;;;;;;8.27;1.52;;;12.10;99.90;;;;;;4997322;28;20233;-72
2022/11/02 10:26:36;;;;;;;15.38;1.83;;;12.10;99.90;;;;;;4996519;28;20507;-71
2022/11/02 10:29:38;;;;;;;13.90;2.10;;;12.20;99.90;;;;;;5010466;28;20094;-72
2022/11/02 10:32:04;;;;;;;12.85;1.85;;;12.30;99.90;;;;;;5014939;28;20124;-72
2022/11/02 10:34:35;;;;;;;10.23;1.83;;;12.40;99.90;;;;;;5014795;28;20057;-72
2022/11/02 10:37:13;;;;;;;13.38;2.85;;;12.50;99.90;;;;;;5017294;28;20398;-72
2022/11/02 10:40:02;;;;;;;9.50;2.08;;;12.50;99.90;;;;;;5014910;28;20497;-72
2022/11/02 10:42:42;;;;;;;9.82;2.17;;;12.50;99.90;;;;;;5015479;28;20042;-72
2022/11/02 10:45:08;;;;;;;10.43;1.52;;;12.70;99.90;;;;;;5000564;28;20603;-70
2022/11/02 10:47:43;;;;;;;12.65;1.77;;;12.80;99.90;;;;;;5015683;28;20061;-72
2022/11/02 10:50:29;;;;;;;13.15;1.80;;;12.80;99.90;;;;;;5014106;28;20045;-71
2022/11/02 10:53:00;;;;;;;10.13;1.38;;;13.00;99.90;;;;;;5018808;28;20053;-71
2022/11/02 10:55:58;;;;;;;10.20;1.40;;;12.90;99.90;;;;;;5010088;28;20061;-70
2022/11/02 10:58:27;;;;;;;15.38;2.83;;;13.00;99.90;;;;;;4987481;28;20074;-71
2022/11/02 11:01:08;;;;;;;11.38;1.80;;;13.00;99.90;;;;;;5009173;28;20127;-70
2022/11/02 11:03:51;;;;;;;9.75;1.75;;;12.90;99.90;;;;;;5019695;28;20148;-71
2022/11/02 11:06:17;;;;;;;10.10;1.67;;;12.90;99.90;;;;;;5000715;28;20560;-70
2022/11/02 11:08:48;;;;;;;11.38;1.83;;;12.80;99.90;;;;;;5003566;28;20049;-70
2022/11/02 11:11:14;;;;;;;11.25;1.42;;;12.90;99.90;;;;;;5014780;28;20045;-72
2022/11/02 11:13:53;;;;;;;9.63;1.75;;;12.90;99.90;;;;;;5001269;28;20600;-71
2022/11/02 11:16:21;;;;;;;17.73;2.38;;;12.90;99.90;;;;;;5016888;28;20320;-71
2022/11/02 11:18:50;;;;;;;11.63;1.67;;;13.00;99.90;;;;;;5005820;28;20042;-73
2022/11/02 11:21:16;;;;;;;15.10;1.70;;;13.00;99.90;;;;;;4993349;28;20045;-72
2022/11/02 11:23:42;;;;;;;11.23;1.52;;;13.10;99.90;;;;;;5017952;28;20554;-71
2022/11/02 11:26:26;;;;;;;13.10;1.63;;;13.10;99.90;;;;;;5010371;28;20099;-71
2022/11/02 11:28:54;;;;;;;12.13;1.90;;;13.20;99.90;;;;;;5027936;28;20079;-71
2022/11/02 11:31:20;;;;;;;13.43;1.85;;;13.30;99.90;;;;;;5005021;28;20062;-71
2022/11/02 11:33:53;;;;;;;12.85;1.88;;;13.30;99.90;;;;;;4998526;28;20077;-71
2022/11/02 11:36:24;;;;;;;15.75;1.52;;;13.30;99.90;;;;;;4998386;28;20037;-72
2022/11/02 11:38:52;;;;;;;11.60;1.55;;;13.30;99.90;;;;;;5012272;28;20069;-72
2022/11/02 11:41:18;;;;;;;12.07;1.80;;;13.30;99.90;;;;;;5008997;28;20128;-71
2022/11/02 11:43:45;;;;;;;10.30;1.50;;;13.30;99.90;;;;;;5011400;28;20037;-72
2022/11/02 11:46:12;;;;;;;13.48;2.28;;;13.30;99.90;;;;;;5018939;28;20041;-72
2022/11/02 11:48:54;;;;;;;13.70;1.70;;;13.30;99.90;;;;;;5009510;28;20037;-71
2022/11/02 11:51:37;;;;;;;8.43;1.45;;;13.30;99.90;;;;;;5017441;28;20132;-71
2022/11/02 11:54:23;;;;;;;8.63;1.40;;;13.40;99.90;;;;;;5011321;28;20061;-72
2022/11/02 11:56:51;;;;;;;10.95;1.50;;;13.40;99.90;;;;;;4999278;28;20041;-72
2022/11/02 11:59:29;;;;;;;11.23;1.60;;;13.40;99.90;;;;;;5010879;28;20510;-71
2022/11/02 12:02:00;;;;;;;10.60;1.23;;;13.30;99.90;;;;;;5011694;28;20054;-72
2022/11/02 12:04:27;;;;;;;;;;;13.30;99.90;;;;;;5014918;28;20044;-72
2022/11/02 12:06:58;;;;;;;9.88;1.85;;;13.30;99.90;;;;;;5024747;28;20420;-72
2022/11/02 12:09:33;;;;;;;9.70;1.80;;;13.30;99.90;;;;;;4995530;28;20054;-72
2022/11/02 12:12:09;;;;;;;11.15;1.80;;;13.30;99.90;;;;;;5000108;28;20075;-71
2022/11/02 12:14:50;;;;;;;9.23;1.85;;;13.30;99.90;;;;;;5009117;28;20049;-71
2022/11/02 12:17:40;;;;;;;12.65;1.48;;;13.40;99.90;;;;;;4994802;28;20049;-71
2022/11/02 12:20:28;;;;;;;10.38;1.40;;;13.40;99.90;;;;;;5014087;28;20092;-71
2022/11/02 12:23:07;;;;;;;15.05;1.92;;;13.40;99.90;;;;;;5014337;28;20528;-71
2022/11/02 12:25:44;;;;;;;12.07;1.95;;;13.40;99.90;;;;;;5015448;28;20053;-70
2022/11/02 12:28:30;;;;;;;8.25;1.35;;;13.40;99.90;;;;;;5007805;28;20041;-70
2022/11/02 12:31:15;;;;;;;11.77;1.50;;;13.40;99.90;;;;;;5018194;28;20441;-71
2022/11/02 12:34:04;;;;;;;14.70;2.20;;;13.40;99.90;;;;;;4995067;28;20072;-72
2022/11/02 12:36:57;;;;;;;7.97;1.42;;;13.40;99.90;;;;;;5016635;28;20387;-71
2022/11/02 12:39:40;;;;;;;11.40;1.35;;;13.30;99.90;;;;;;5015196;28;20054;-71
2022/11/02 12:42:23;;;;;;;11.80;1.40;;;13.30;99.90;;;;;;5010301;28;20076;-71
2022/11/02 12:44:57;;;;;;;8.65;1.75;;;13.20;99.90;;;;;;5012285;28;20054;-71
2022/11/02 12:47:51;;;;;;;9.55;1.20;;;13.20;99.90;;;;;;5009617;28;20046;-71
2022/11/02 12:50:33;;;;;;;11.18;1.60;;;13.20;99.90;;;;;;5018840;28;20808;-72
2022/11/02 12:53:11;;;;;;;15.77;1.88;;;13.30;99.90;;;;;;5017551;28;20049;-71
2022/11/02 12:55:43;;;;;;;12.32;1.90;;;13.40;99.90;;;;;;5031862;28;20090;-71
2022/11/02 12:58:29;;;;;;;14.93;1.50;;;13.40;99.90;;;;;;5016879;28;20422;-71
2022/11/02 13:01:07;;;;;;;9.60;2.08;;;13.50;99.90;;;;;;5024805;28;20053;-71
2022/11/02 13:04:14;;;;;;;11.25;1.92;;;13.50;99.90;;;;;;5019200;28;22095;-71
2022/11/02 13:06:47;;;;;;;11.07;1.55;;;13.50;99.90;;;;;;5014404;28;20094;-71
2022/11/02 13:09:50;;;;;;;13.20;2.28;;;13.50;99.90;;;;;;5015713;28;20076;-71
2022/11/02 13:12:20;;;;;;;9.82;1.60;;;13.50;99.90;;;;;;5019882;28;20045;-71
2022/11/02 13:14:48;;;;;;;10.85;1.75;;;13.50;99.90;;;;;;5019309;28;20046;-71
2022/11/02 13:17:32;;;;;;;10.63;1.90;;;13.50;99.90;;;;;;5024374;28;20470;-73
2022/11/02 13:20:03;;;;;;;7.78;1.75;;;13.60;99.90;;;;;;5024581;28;20053;-73